sensor_id;sensor_type;location;lat;lon;timestamp;P1;durP1;ratioP1;P2;durP2;ratioP2
68792;SDS011;55778;54.346;10.210;2023-04-06T00:01:02;15.20;;;7.72;;
68792;SDS011;55778;54.346;10.210;2023-04-06T00:03:27;18.55;;;7.78;;
68792;SDS011;55778;54.346;10.210;2023-04-06T00:05:53;14.65;;;8.25;;
68792;SDS011;55778;54.346;10.210;2023-04-06T00:08:18;17.48;;;8.20;;
68792;SDS011;55778;54.346;10.210;2023-04-06T00:10:43;15.02;;;7.53;;
68792;SDS011;55778;54.346;10.210;2023-04-06T00:13:09;15.48;;;7.30;;
68792;SDS011;55778;54.346;10.210;2023-04-06T00:15:35;19.52;;;8.35;;
68792;SDS011;55778;54.346;10.210;2023-04-06T00:18:00;18.70;;;8.57;;
68792;SDS011;55778;54.346;10.210;2023-04-06T00:20:27;17.70;;;7.75;;
68792;SDS011;55778;54.346;10.210;2023-04-06T00:22:53;19.60;;;7.82;;
68792;SDS011;55778;54.346;10.210;2023-04-06T00:25:19;13.68;;;6.75;;
68792;SDS011;55778;54.346;10.210;2023-04-06T00:27:45;13.90;;;7.20;;
68792;SDS011;55778;54.346;10.210;2023-04-06T00:30:10;13.50;;;6.78;;
68792;SDS011;55778;54.346;10.210;2023-04-06T00:32:36;14.05;;;6.60;;
68792;SDS011;55778;54.346;10.210;2023-04-06T00:35:02;14.18;;;6.82;;
68792;SDS011;55778;54.346;10.210;2023-04-06T00:37:30;13.40;;;6.78;;
68792;SDS011;55778;54.346;10.210;2023-04-06T00:39:55;16.33;;;6.93;;
68792;SDS011;55778;54.346;10.210;2023-04-06T00:42:21;14.85;;;6.90;;
68792;SDS011;55778;54.346;10.210;2023-04-06T00:44:54;16.65;;;7.20;;
68792;SDS011;55778;54.346;10.210;2023-04-06T00:47:22;14.45;;;6.57;;
68792;SDS011;55778;54.346;10.210;2023-04-06T00:49:50;15.93;;;7.00;;
68792;SDS011;55778;54.346;10.210;2023-04-06T00:52:16;14.00;;;6.60;;
68792;SDS011;55778;54.346;10.210;2023-04-06T00:54:42;14.60;;;7.10;;
68792;SDS011;55778;54.346;10.210;2023-04-06T00:57:09;14.65;;;7.45;;
68792;SDS011;55778;54.346;10.210;2023-04-06T00:59:34;12.93;;;6.63;;
68792;SDS011;55778;54.346;10.210;2023-04-06T01:02:00;15.77;;;7.38;;
68792;SDS011;55778;54.346;10.210;2023-04-06T01:04:26;15.82;;;7.03;;
68792;SDS011;55778;54.346;10.210;2023-04-06T01:06:52;15.18;;;6.88;;
68792;SDS011;55778;54.346;10.210;2023-04-06T01:09:17;15.85;;;7.50;;
68792;SDS011;55778;54.346;10.210;2023-04-06T01:11:43;14.57;;;7.75;;
68792;SDS011;55778;54.346;10.210;2023-04-06T01:14:08;17.45;;;7.10;;
68792;SDS011;55778;54.346;10.210;2023-04-06T01:16:34;13.88;;;6.70;;
68792;SDS011;55778;54.346;10.210;2023-04-06T01:19:01;15.25;;;7.15;;
68792;SDS011;55778;54.346;10.210;2023-04-06T01:21:31;16.60;;;6.72;;
68792;SDS011;55778;54.346;10.210;2023-04-06T01:23:57;14.02;;;7.10;;
68792;SDS011;55778;54.346;10.210;2023-04-06T01:26:22;14.73;;;7.15;;
68792;SDS011;55778;54.346;10.210;2023-04-06T01:28:47;15.40;;;7.45;;
68792;SDS011;55778;54.346;10.210;2023-04-06T01:31:13;15.13;;;7.32;;
68792;SDS011;55778;54.346;10.210;2023-04-06T01:33:38;16.73;;;7.78;;
68792;SDS011;55778;54.346;10.210;2023-04-06T01:36:04;16.05;;;7.93;;
68792;SDS011;55778;54.346;10.210;2023-04-06T01:38:30;15.82;;;7.63;;
68792;SDS011;55778;54.346;10.210;2023-04-06T01:40:56;18.45;;;7.68;;
68792;SDS011;55778;54.346;10.210;2023-04-06T01:43:22;16.02;;;7.45;;
68792;SDS011;55778;54.346;10.210;2023-04-06T01:45:48;15.75;;;8.00;;
68792;SDS011;55778;54.346;10.210;2023-04-06T01:48:13;20.35;;;7.80;;
68792;SDS011;55778;54.346;10.210;2023-04-06T01:50:39;17.60;;;7.65;;
68792;SDS011;55778;54.346;10.210;2023-04-06T01:53:05;18.17;;;8.15;;
68792;SDS011;55778;54.346;10.210;2023-04-06T01:55:30;17.77;;;7.95;;
68792;SDS011;55778;54.346;10.210;2023-04-06T01:57:56;16.10;;;7.97;;
68792;SDS011;55778;54.346;10.210;2023-04-06T02:00:21;16.30;;;7.43;;
68792;SDS011;55778;54.346;10.210;2023-04-06T02:02:47;18.02;;;8.07;;
68792;SDS011;55778;54.346;10.210;2023-04-06T02:05:12;18.40;;;7.68;;
68792;SDS011;55778;54.346;10.210;2023-04-06T02:07:38;18.00;;;7.60;;
68792;SDS011;55778;54.346;10.210;2023-04-06T02:10:04;14.00;;;7.50;;
68792;SDS011;55778;54.346;10.210;2023-04-06T02:12:37;18.73;;;7.68;;
68792;SDS011;55778;54.346;10.210;2023-04-06T02:15:02;14.40;;;7.38;;
68792;SDS011;55778;54.346;10.210;2023-04-06T02:17:28;18.15;;;8.27;;
68792;SDS011;55778;54.346;10.210;2023-04-06T02:19:53;32.70;;;14.80;;
68792;SDS011;55778;54.346;10.210;2023-04-06T02:22:19;29.17;;;13.73;;
68792;SDS011;55778;54.346;10.210;2023-04-06T02:24:44;44.78;;;17.85;;
68792;SDS011;55778;54.346;10.210;2023-04-06T02:27:11;16.65;;;8.40;;
68792;SDS011;55778;54.346;10.210;2023-04-06T02:29:37;20.00;;;8.73;;
68792;SDS011;55778;54.346;10.210;2023-04-06T02:32:02;16.65;;;8.25;;
68792;SDS011;55778;54.346;10.210;2023-04-06T02:34:28;16.08;;;8.75;;
68792;SDS011;55778;54.346;10.210;2023-04-06T02:36:54;21.10;;;8.57;;
68792;SDS011;55778;54.346;10.210;2023-04-06T02:39:20;20.38;;;8.73;;
68792;SDS011;55778;54.346;10.210;2023-04-06T02:41:45;20.02;;;9.10;;
68792;SDS011;55778;54.346;10.210;2023-04-06T02:44:11;20.10;;;8.80;;
68792;SDS011;55778;54.346;10.210;2023-04-06T02:46:36;19.88;;;9.48;;
68792;SDS011;55778;54.346;10.210;2023-04-06T02:49:01;24.02;;;10.88;;
68792;SDS011;55778;54.346;10.210;2023-04-06T02:51:27;19.23;;;9.38;;
68792;SDS011;55778;54.346;10.210;2023-04-06T02:53:53;18.85;;;9.02;;
68792;SDS011;55778;54.346;10.210;2023-04-06T02:56:18;19.38;;;9.43;;
68792;SDS011;55778;54.346;10.210;2023-04-06T02:58:45;24.50;;;9.38;;
68792;SDS011;55778;54.346;10.210;2023-04-06T03:01:11;21.30;;;9.35;;
68792;SDS011;55778;54.346;10.210;2023-04-06T03:03:36;26.30;;;9.88;;
68792;SDS011;55778;54.346;10.210;2023-04-06T03:06:02;28.02;;;11.75;;
68792;SDS011;55778;54.346;10.210;2023-04-06T03:08:28;35.13;;;13.82;;
68792;SDS011;55778;54.346;10.210;2023-04-06T03:10:53;35.20;;;12.98;;
68792;SDS011;55778;54.346;10.210;2023-04-06T03:13:19;26.10;;;11.10;;
68792;SDS011;55778;54.346;10.210;2023-04-06T03:15:45;23.05;;;9.90;;
68792;SDS011;55778;54.346;10.210;2023-04-06T03:18:10;23.15;;;10.00;;
68792;SDS011;55778;54.346;10.210;2023-04-06T03:20:36;23.02;;;10.48;;
68792;SDS011;55778;54.346;10.210;2023-04-06T03:23:01;27.13;;;11.32;;
68792;SDS011;55778;54.346;10.210;2023-04-06T03:25:27;23.70;;;11.10;;
68792;SDS011;55778;54.346;10.210;2023-04-06T03:27:52;27.58;;;12.57;;
68792;SDS011;55778;54.346;10.210;2023-04-06T03:30:17;30.38;;;13.18;;
68792;SDS011;55778;54.346;10.210;2023-04-06T03:32:43;31.40;;;13.18;;
68792;SDS011;55778;54.346;10.210;2023-04-06T03:35:09;33.90;;;14.13;;
68792;SDS011;55778;54.346;10.210;2023-04-06T03:37:35;30.63;;;13.43;;
68792;SDS011;55778;54.346;10.210;2023-04-06T03:40:01;40.65;;;14.93;;
68792;SDS011;55778;54.346;10.210;2023-04-06T03:42:27;36.97;;;14.85;;
68792;SDS011;55778;54.346;10.210;2023-04-06T03:44:52;47.03;;;16.10;;
68792;SDS011;55778;54.346;10.210;2023-04-06T03:47:18;39.33;;;14.57;;
68792;SDS011;55778;54.346;10.210;2023-04-06T03:49:43;43.30;;;15.45;;
68792;SDS011;55778;54.346;10.210;2023-04-06T03:52:09;33.03;;;14.77;;
68792;SDS011;55778;54.346;10.210;2023-04-06T03:54:34;34.85;;;14.70;;
68792;SDS011;55778;54.346;10.210;2023-04-06T03:57:00;36.33;;;14.73;;
68792;SDS011;55778;54.346;10.210;2023-04-06T03:59:29;81.75;;;25.77;;
68792;SDS011;55778;54.346;10.210;2023-04-06T04:01:54;102.05;;;29.10;;
68792;SDS011;55778;54.346;10.210;2023-04-06T04:04:20;94.53;;;28.88;;
68792;SDS011;55778;54.346;10.210;2023-04-06T04:06:45;112.68;;;28.88;;
68792;SDS011;55778;54.346;10.210;2023-04-06T04:09:10;95.15;;;28.40;;
68792;SDS011;55778;54.346;10.210;2023-04-06T04:11:36;95.38;;;29.25;;
68792;SDS011;55778;54.346;10.210;2023-04-06T04:14:01;53.20;;;18.25;;
68792;SDS011;55778;54.346;10.210;2023-04-06T04:16:27;48.00;;;18.05;;
68792;SDS011;55778;54.346;10.210;2023-04-06T04:18:52;100.82;;;29.40;;
68792;SDS011;55778;54.346;10.210;2023-04-06T04:21:17;96.22;;;27.42;;
68792;SDS011;55778;54.346;10.210;2023-04-06T04:23:43;88.05;;;26.30;;
68792;SDS011;55778;54.346;10.210;2023-04-06T04:26:08;100.20;;;29.60;;
68792;SDS011;55778;54.346;10.210;2023-04-06T04:28:34;62.33;;;20.70;;
68792;SDS011;55778;54.346;10.210;2023-04-06T04:30:59;42.28;;;17.52;;
68792;SDS011;55778;54.346;10.210;2023-04-06T04:33:25;41.72;;;16.10;;
68792;SDS011;55778;54.346;10.210;2023-04-06T04:35:50;42.60;;;16.70;;
68792;SDS011;55778;54.346;10.210;2023-04-06T04:38:16;42.03;;;16.33;;
68792;SDS011;55778;54.346;10.210;2023-04-06T04:40:41;39.67;;;16.00;;
68792;SDS011;55778;54.346;10.210;2023-04-06T04:43:07;43.35;;;18.77;;
68792;SDS011;55778;54.346;10.210;2023-04-06T04:45:32;43.90;;;16.38;;
68792;SDS011;55778;54.346;10.210;2023-04-06T04:47:57;38.35;;;14.90;;
68792;SDS011;55778;54.346;10.210;2023-04-06T04:50:23;38.53;;;15.65;;
68792;SDS011;55778;54.346;10.210;2023-04-06T04:52:48;39.58;;;15.90;;
68792;SDS011;55778;54.346;10.210;2023-04-06T04:55:14;37.00;;;15.18;;
68792;SDS011;55778;54.346;10.210;2023-04-06T04:57:40;38.83;;;15.60;;
68792;SDS011;55778;54.346;10.210;2023-04-06T05:00:05;35.60;;;15.35;;
68792;SDS011;55778;54.346;10.210;2023-04-06T05:02:31;36.10;;;15.13;;
68792;SDS011;55778;54.346;10.210;2023-04-06T05:04:57;36.33;;;15.27;;
68792;SDS011;55778;54.346;10.210;2023-04-06T05:07:25;40.42;;;16.52;;
68792;SDS011;55778;54.346;10.210;2023-04-06T05:09:51;48.53;;;20.63;;
68792;SDS011;55778;54.346;10.210;2023-04-06T05:12:16;42.67;;;17.67;;
68792;SDS011;55778;54.346;10.210;2023-04-06T05:14:42;37.50;;;15.90;;
68792;SDS011;55778;54.346;10.210;2023-04-06T05:17:08;37.92;;;16.27;;
68792;SDS011;55778;54.346;10.210;2023-04-06T05:19:33;41.55;;;17.38;;
68792;SDS011;55778;54.346;10.210;2023-04-06T05:21:59;43.78;;;15.70;;
68792;SDS011;55778;54.346;10.210;2023-04-06T05:24:24;38.42;;;16.17;;
68792;SDS011;55778;54.346;10.210;2023-04-06T05:26:50;41.95;;;16.52;;
68792;SDS011;55778;54.346;10.210;2023-04-06T05:29:16;48.88;;;15.98;;
68792;SDS011;55778;54.346;10.210;2023-04-06T05:31:41;35.08;;;15.60;;
68792;SDS011;55778;54.346;10.210;2023-04-06T05:34:07;37.83;;;15.77;;
68792;SDS011;55778;54.346;10.210;2023-04-06T05:36:34;35.72;;;14.80;;
68792;SDS011;55778;54.346;10.210;2023-04-06T05:39:00;33.80;;;14.65;;
68792;SDS011;55778;54.346;10.210;2023-04-06T05:41:25;36.22;;;14.27;;
68792;SDS011;55778;54.346;10.210;2023-04-06T05:43:51;32.35;;;14.07;;
68792;SDS011;55778;54.346;10.210;2023-04-06T05:46:16;34.78;;;14.75;;
68792;SDS011;55778;54.346;10.210;2023-04-06T05:48:43;35.85;;;14.18;;
68792;SDS011;55778;54.346;10.210;2023-04-06T05:51:10;31.83;;;13.32;;
68792;SDS011;55778;54.346;10.210;2023-04-06T05:53:36;35.17;;;14.65;;
68792;SDS011;55778;54.346;10.210;2023-04-06T05:56:01;28.15;;;12.15;;
68792;SDS011;55778;54.346;10.210;2023-04-06T05:58:28;31.50;;;12.20;;
68792;SDS011;55778;54.346;10.210;2023-04-06T06:00:57;23.70;;;11.27;;
68792;SDS011;55778;54.346;10.210;2023-04-06T06:03:26;28.35;;;11.88;;
68792;SDS011;55778;54.346;10.210;2023-04-06T06:05:52;28.25;;;11.63;;
68792;SDS011;55778;54.346;10.210;2023-04-06T06:08:17;27.58;;;11.55;;
68792;SDS011;55778;54.346;10.210;2023-04-06T06:10:42;23.83;;;10.95;;
68792;SDS011;55778;54.346;10.210;2023-04-06T06:13:08;23.67;;;11.20;;
68792;SDS011;55778;54.346;10.210;2023-04-06T06:15:33;23.88;;;10.20;;
68792;SDS011;55778;54.346;10.210;2023-04-06T06:17:59;24.35;;;11.00;;
68792;SDS011;55778;54.346;10.210;2023-04-06T06:20:25;21.65;;;9.90;;
68792;SDS011;55778;54.346;10.210;2023-04-06T06:22:51;20.38;;;9.70;;
68792;SDS011;55778;54.346;10.210;2023-04-06T06:25:17;21.75;;;9.98;;
68792;SDS011;55778;54.346;10.210;2023-04-06T06:27:42;20.05;;;9.07;;
68792;SDS011;55778;54.346;10.210;2023-04-06T06:30:08;16.83;;;8.27;;
68792;SDS011;55778;54.346;10.210;2023-04-06T06:32:34;20.55;;;8.77;;
68792;SDS011;55778;54.346;10.210;2023-04-06T06:34:59;15.80;;;8.02;;
68792;SDS011;55778;54.346;10.210;2023-04-06T06:37:25;15.85;;;7.95;;
68792;SDS011;55778;54.346;10.210;2023-04-06T06:39:50;18.05;;;7.63;;
68792;SDS011;55778;54.346;10.210;2023-04-06T06:42:16;15.68;;;8.30;;
68792;SDS011;55778;54.346;10.210;2023-04-06T06:44:42;17.10;;;9.20;;
68792;SDS011;55778;54.346;10.210;2023-04-06T06:47:08;18.17;;;9.02;;
68792;SDS011;55778;54.346;10.210;2023-04-06T06:49:33;15.18;;;7.38;;
68792;SDS011;55778;54.346;10.210;2023-04-06T06:51:58;19.55;;;7.93;;
68792;SDS011;55778;54.346;10.210;2023-04-06T06:54:24;15.52;;;7.50;;
68792;SDS011;55778;54.346;10.210;2023-04-06T06:56:49;14.43;;;7.15;;
68792;SDS011;55778;54.346;10.210;2023-04-06T06:59:15;16.48;;;7.63;;
68792;SDS011;55778;54.346;10.210;2023-04-06T07:01:41;15.75;;;7.53;;
68792;SDS011;55778;54.346;10.210;2023-04-06T07:04:06;16.27;;;8.77;;
68792;SDS011;55778;54.346;10.210;2023-04-06T07:06:34;14.65;;;7.63;;
68792;SDS011;55778;54.346;10.210;2023-04-06T07:09:00;15.60;;;6.55;;
68792;SDS011;55778;54.346;10.210;2023-04-06T07:11:28;14.13;;;6.32;;
68792;SDS011;55778;54.346;10.210;2023-04-06T07:13:53;13.35;;;6.65;;
68792;SDS011;55778;54.346;10.210;2023-04-06T07:16:18;14.68;;;6.55;;
68792;SDS011;55778;54.346;10.210;2023-04-06T07:18:44;12.23;;;7.15;;
68792;SDS011;55778;54.346;10.210;2023-04-06T07:21:10;12.73;;;6.13;;
68792;SDS011;55778;54.346;10.210;2023-04-06T07:23:35;11.85;;;6.75;;
68792;SDS011;55778;54.346;10.210;2023-04-06T07:26:01;10.75;;;6.47;;
68792;SDS011;55778;54.346;10.210;2023-04-06T07:28:26;13.40;;;6.50;;
68792;SDS011;55778;54.346;10.210;2023-04-06T07:30:51;14.68;;;6.38;;
68792;SDS011;55778;54.346;10.210;2023-04-06T07:33:17;12.20;;;6.50;;
68792;SDS011;55778;54.346;10.210;2023-04-06T07:35:43;13.82;;;7.22;;
68792;SDS011;55778;54.346;10.210;2023-04-06T07:38:08;11.65;;;6.00;;
68792;SDS011;55778;54.346;10.210;2023-04-06T07:40:33;13.77;;;6.20;;
68792;SDS011;55778;54.346;10.210;2023-04-06T07:43:02;14.82;;;6.50;;
68792;SDS011;55778;54.346;10.210;2023-04-06T07:45:28;10.95;;;5.97;;
68792;SDS011;55778;54.346;10.210;2023-04-06T07:47:53;12.68;;;6.00;;
68792;SDS011;55778;54.346;10.210;2023-04-06T07:50:19;13.05;;;5.55;;
68792;SDS011;55778;54.346;10.210;2023-04-06T07:52:45;11.05;;;5.97;;
68792;SDS011;55778;54.346;10.210;2023-04-06T07:55:10;12.50;;;6.25;;
68792;SDS011;55778;54.346;10.210;2023-04-06T07:57:36;13.40;;;6.20;;
68792;SDS011;55778;54.346;10.210;2023-04-06T08:00:02;11.65;;;5.90;;
68792;SDS011;55778;54.346;10.210;2023-04-06T08:02:28;12.82;;;6.32;;
68792;SDS011;55778;54.346;10.210;2023-04-06T08:04:54;12.30;;;5.93;;
68792;SDS011;55778;54.346;10.210;2023-04-06T08:07:20;10.13;;;6.00;;
68792;SDS011;55778;54.346;10.210;2023-04-06T08:09:45;11.32;;;6.45;;
68792;SDS011;55778;54.346;10.210;2023-04-06T08:12:11;10.82;;;6.25;;
68792;SDS011;55778;54.346;10.210;2023-04-06T08:14:36;11.65;;;6.03;;
68792;SDS011;55778;54.346;10.210;2023-04-06T08:17:02;13.93;;;6.55;;
68792;SDS011;55778;54.346;10.210;2023-04-06T08:19:27;10.30;;;5.70;;
68792;SDS011;55778;54.346;10.210;2023-04-06T08:21:53;8.63;;;4.70;;
68792;SDS011;55778;54.346;10.210;2023-04-06T08:24:18;9.88;;;5.85;;
68792;SDS011;55778;54.346;10.210;2023-04-06T08:26:44;12.55;;;6.15;;
68792;SDS011;55778;54.346;10.210;2023-04-06T08:29:09;11.55;;;5.90;;
68792;SDS011;55778;54.346;10.210;2023-04-06T08:31:35;14.60;;;5.28;;
68792;SDS011;55778;54.346;10.210;2023-04-06T08:34:01;8.98;;;5.22;;
68792;SDS011;55778;54.346;10.210;2023-04-06T08:36:27;10.18;;;5.80;;
68792;SDS011;55778;54.346;10.210;2023-04-06T08:38:52;10.70;;;5.20;;
68792;SDS011;55778;54.346;10.210;2023-04-06T08:41:18;8.88;;;4.97;;
68792;SDS011;55778;54.346;10.210;2023-04-06T08:44:02;9.98;;;5.07;;
68792;SDS011;55778;54.346;10.210;2023-04-06T08:46:28;10.50;;;4.90;;
68792;SDS011;55778;54.346;10.210;2023-04-06T08:48:59;11.27;;;5.35;;
68792;SDS011;55778;54.346;10.210;2023-04-06T08:51:26;8.27;;;4.38;;
68792;SDS011;55778;54.346;10.210;2023-04-06T08:53:53;9.60;;;5.00;;
68792;SDS011;55778;54.346;10.210;2023-04-06T08:56:21;9.82;;;4.80;;
68792;SDS011;55778;54.346;10.210;2023-04-06T08:58:47;11.68;;;4.82;;
68792;SDS011;55778;54.346;10.210;2023-04-06T09:01:13;7.30;;;4.50;;
68792;SDS011;55778;54.346;10.210;2023-04-06T09:03:44;7.90;;;4.70;;
68792;SDS011;55778;54.346;10.210;2023-04-06T09:06:13;8.25;;;4.88;;
68792;SDS011;55778;54.346;10.210;2023-04-06T09:08:39;9.30;;;5.65;;
68792;SDS011;55778;54.346;10.210;2023-04-06T09:11:06;9.88;;;5.25;;
68792;SDS011;55778;54.346;10.210;2023-04-06T09:13:31;9.10;;;5.38;;
68792;SDS011;55778;54.346;10.210;2023-04-06T09:16:04;9.70;;;5.65;;
68792;SDS011;55778;54.346;10.210;2023-04-06T09:18:32;10.27;;;5.78;;
68792;SDS011;55778;54.346;10.210;2023-04-06T09:21:01;8.23;;;5.38;;
68792;SDS011;55778;54.346;10.210;2023-04-06T09:23:28;8.65;;;5.47;;
68792;SDS011;55778;54.346;10.210;2023-04-06T09:26:04;7.47;;;5.47;;
68792;SDS011;55778;54.346;10.210;2023-04-06T09:28:49;8.40;;;5.47;;
68792;SDS011;55778;54.346;10.210;2023-04-06T09:31:17;9.85;;;5.97;;
68792;SDS011;55778;54.346;10.210;2023-04-06T09:33:53;10.60;;;6.47;;
68792;SDS011;55778;54.346;10.210;2023-04-06T09:36:19;9.13;;;5.82;;
68792;SDS011;55778;54.346;10.210;2023-04-06T09:38:52;9.48;;;5.68;;
68792;SDS011;55778;54.346;10.210;2023-04-06T09:41:22;9.23;;;6.20;;
68792;SDS011;55778;54.346;10.210;2023-04-06T09:44:01;8.35;;;5.47;;
68792;SDS011;55778;54.346;10.210;2023-04-06T09:46:35;9.30;;;5.15;;
68792;SDS011;55778;54.346;10.210;2023-04-06T09:51:30;6.82;;;3.95;;
68792;SDS011;55778;54.346;10.210;2023-04-06T09:54:01;7.43;;;4.28;;
68792;SDS011;55778;54.346;10.210;2023-04-06T09:56:31;8.38;;;4.40;;
68792;SDS011;55778;54.346;10.210;2023-04-06T09:59:12;8.82;;;4.53;;
68792;SDS011;55778;54.346;10.210;2023-04-06T10:01:41;7.25;;;4.35;;
68792;SDS011;55778;54.346;10.210;2023-04-06T10:06:52;5.32;;;3.55;;
68792;SDS011;55778;54.346;10.210;2023-04-06T10:09:21;7.13;;;3.72;;
68792;SDS011;55778;54.346;10.210;2023-04-06T10:11:50;5.95;;;3.50;;
68792;SDS011;55778;54.346;10.210;2023-04-06T10:14:17;5.65;;;3.95;;
68792;SDS011;55778;54.346;10.210;2023-04-06T10:16:43;7.55;;;3.40;;
68792;SDS011;55778;54.346;10.210;2023-04-06T10:19:18;6.70;;;4.07;;
68792;SDS011;55778;54.346;10.210;2023-04-06T10:21:50;6.00;;;3.80;;
68792;SDS011;55778;54.346;10.210;2023-04-06T10:24:20;6.68;;;4.00;;
68792;SDS011;55778;54.346;10.210;2023-04-06T10:27:01;6.68;;;4.28;;
68792;SDS011;55778;54.346;10.210;2023-04-06T10:29:27;5.18;;;3.50;;
68792;SDS011;55778;54.346;10.210;2023-04-06T10:31:53;7.95;;;5.10;;
68792;SDS011;55778;54.346;10.210;2023-04-06T10:34:20;9.07;;;4.60;;
68792;SDS011;55778;54.346;10.210;2023-04-06T10:36:46;7.47;;;4.10;;
68792;SDS011;55778;54.346;10.210;2023-04-06T10:39:11;6.43;;;3.97;;
68792;SDS011;55778;54.346;10.210;2023-04-06T10:41:41;9.43;;;4.60;;
68792;SDS011;55778;54.346;10.210;2023-04-06T10:44:08;6.45;;;4.32;;
68792;SDS011;55778;54.346;10.210;2023-04-06T10:46:41;4.28;;;2.85;;
68792;SDS011;55778;54.346;10.210;2023-04-06T10:49:20;8.57;;;4.03;;
68792;SDS011;55778;54.346;10.210;2023-04-06T10:51:50;4.88;;;3.40;;
68792;SDS011;55778;54.346;10.210;2023-04-06T10:54:17;6.68;;;3.97;;
68792;SDS011;55778;54.346;10.210;2023-04-06T10:56:44;5.68;;;3.63;;
68792;SDS011;55778;54.346;10.210;2023-04-06T10:59:10;9.80;;;3.20;;
68792;SDS011;55778;54.346;10.210;2023-04-06T11:01:36;6.28;;;3.10;;
68792;SDS011;55778;54.346;10.210;2023-04-06T11:04:06;6.45;;;3.20;;
68792;SDS011;55778;54.346;10.210;2023-04-06T11:06:38;5.80;;;3.63;;
68792;SDS011;55778;54.346;10.210;2023-04-06T11:09:04;5.95;;;3.72;;
68792;SDS011;55778;54.346;10.210;2023-04-06T11:11:30;6.93;;;3.67;;
68792;SDS011;55778;54.346;10.210;2023-04-06T11:13:56;6.53;;;3.40;;
68792;SDS011;55778;54.346;10.210;2023-04-06T11:16:27;5.00;;;3.17;;
68792;SDS011;55778;54.346;10.210;2023-04-06T11:21:36;5.50;;;3.15;;
68792;SDS011;55778;54.346;10.210;2023-04-06T11:24:06;8.35;;;3.50;;
68792;SDS011;55778;54.346;10.210;2023-04-06T11:29:04;6.15;;;3.85;;
68792;SDS011;55778;54.346;10.210;2023-04-06T11:31:30;6.38;;;3.22;;
68792;SDS011;55778;54.346;10.210;2023-04-06T11:33:56;5.72;;;3.20;;
68792;SDS011;55778;54.346;10.210;2023-04-06T11:36:22;6.40;;;2.85;;
68792;SDS011;55778;54.346;10.210;2023-04-06T11:38:48;5.30;;;2.80;;
68792;SDS011;55778;54.346;10.210;2023-04-06T11:41:13;5.45;;;3.20;;
68792;SDS011;55778;54.346;10.210;2023-04-06T11:43:45;9.27;;;3.50;;
68792;SDS011;55778;54.346;10.210;2023-04-06T11:46:17;4.35;;;3.00;;
68792;SDS011;55778;54.346;10.210;2023-04-06T11:48:44;4.28;;;2.88;;
68792;SDS011;55778;54.346;10.210;2023-04-06T11:51:11;4.22;;;2.95;;
68792;SDS011;55778;54.346;10.210;2023-04-06T11:53:45;4.85;;;3.30;;
68792;SDS011;55778;54.346;10.210;2023-04-06T11:56:11;6.32;;;3.00;;
68792;SDS011;55778;54.346;10.210;2023-04-06T11:58:36;4.57;;;2.88;;
68792;SDS011;55778;54.346;10.210;2023-04-06T12:01:05;5.32;;;2.90;;
68792;SDS011;55778;54.346;10.210;2023-04-06T12:03:31;6.38;;;3.22;;
68792;SDS011;55778;54.346;10.210;2023-04-06T12:05:56;6.50;;;3.38;;
68792;SDS011;55778;54.346;10.210;2023-04-06T12:08:22;6.18;;;3.00;;
68792;SDS011;55778;54.346;10.210;2023-04-06T12:10:50;9.43;;;3.30;;
68792;SDS011;55778;54.346;10.210;2023-04-06T12:13:16;3.65;;;2.97;;
68792;SDS011;55778;54.346;10.210;2023-04-06T12:15:41;4.25;;;3.05;;
68792;SDS011;55778;54.346;10.210;2023-04-06T12:18:06;5.65;;;3.10;;
68792;SDS011;55778;54.346;10.210;2023-04-06T12:20:32;5.95;;;3.38;;
68792;SDS011;55778;54.346;10.210;2023-04-06T12:22:57;5.40;;;3.33;;
68792;SDS011;55778;54.346;10.210;2023-04-06T12:25:23;5.35;;;3.08;;
68792;SDS011;55778;54.346;10.210;2023-04-06T12:27:48;5.93;;;3.10;;
68792;SDS011;55778;54.346;10.210;2023-04-06T12:30:14;5.60;;;3.20;;
68792;SDS011;55778;54.346;10.210;2023-04-06T12:32:40;5.95;;;3.30;;
68792;SDS011;55778;54.346;10.210;2023-04-06T12:35:06;5.43;;;3.42;;
68792;SDS011;55778;54.346;10.210;2023-04-06T12:37:33;4.43;;;2.80;;
68792;SDS011;55778;54.346;10.210;2023-04-06T12:39:59;5.60;;;3.20;;
68792;SDS011;55778;54.346;10.210;2023-04-06T12:42:25;4.90;;;3.10;;
68792;SDS011;55778;54.346;10.210;2023-04-06T12:44:51;4.75;;;3.13;;
68792;SDS011;55778;54.346;10.210;2023-04-06T12:47:19;5.75;;;3.25;;
68792;SDS011;55778;54.346;10.210;2023-04-06T12:49:45;5.97;;;3.42;;
68792;SDS011;55778;54.346;10.210;2023-04-06T12:52:11;6.13;;;3.72;;
68792;SDS011;55778;54.346;10.210;2023-04-06T12:54:36;8.48;;;3.42;;
68792;SDS011;55778;54.346;10.210;2023-04-06T12:57:02;5.70;;;3.25;;
68792;SDS011;55778;54.346;10.210;2023-04-06T12:59:27;4.88;;;3.30;;
68792;SDS011;55778;54.346;10.210;2023-04-06T13:01:59;4.68;;;3.33;;
68792;SDS011;55778;54.346;10.210;2023-04-06T13:04:25;7.38;;;3.40;;
68792;SDS011;55778;54.346;10.210;2023-04-06T13:06:51;6.55;;;3.80;;
68792;SDS011;55778;54.346;10.210;2023-04-06T13:09:16;5.15;;;3.63;;
68792;SDS011;55778;54.346;10.210;2023-04-06T13:11:42;6.45;;;3.60;;
68792;SDS011;55778;54.346;10.210;2023-04-06T13:14:07;5.85;;;3.60;;
68792;SDS011;55778;54.346;10.210;2023-04-06T13:16:33;5.53;;;3.80;;
68792;SDS011;55778;54.346;10.210;2023-04-06T13:18:58;6.13;;;3.70;;
68792;SDS011;55778;54.346;10.210;2023-04-06T13:21:24;6.70;;;4.10;;
68792;SDS011;55778;54.346;10.210;2023-04-06T13:23:49;7.05;;;3.92;;
68792;SDS011;55778;54.346;10.210;2023-04-06T13:26:15;9.20;;;3.85;;
68792;SDS011;55778;54.346;10.210;2023-04-06T13:28:41;6.03;;;3.90;;
68792;SDS011;55778;54.346;10.210;2023-04-06T13:31:07;5.47;;;3.60;;
68792;SDS011;55778;54.346;10.210;2023-04-06T13:33:33;8.52;;;4.07;;
68792;SDS011;55778;54.346;10.210;2023-04-06T13:35:59;6.68;;;4.50;;
68792;SDS011;55778;54.346;10.210;2023-04-06T13:38:25;9.63;;;4.45;;
68792;SDS011;55778;54.346;10.210;2023-04-06T13:40:50;7.85;;;4.70;;
68792;SDS011;55778;54.346;10.210;2023-04-06T13:43:16;7.28;;;4.22;;
68792;SDS011;55778;54.346;10.210;2023-04-06T13:45:48;8.70;;;4.63;;
68792;SDS011;55778;54.346;10.210;2023-04-06T13:48:18;7.43;;;4.65;;
68792;SDS011;55778;54.346;10.210;2023-04-06T13:50:44;6.80;;;4.57;;
68792;SDS011;55778;54.346;10.210;2023-04-06T13:53:10;7.18;;;4.65;;
68792;SDS011;55778;54.346;10.210;2023-04-06T13:55:36;7.57;;;4.88;;
68792;SDS011;55778;54.346;10.210;2023-04-06T13:58:01;8.68;;;4.97;;
68792;SDS011;55778;54.346;10.210;2023-04-06T14:00:27;8.13;;;4.88;;
68792;SDS011;55778;54.346;10.210;2023-04-06T14:02:55;9.20;;;4.97;;
68792;SDS011;55778;54.346;10.210;2023-04-06T14:05:21;8.82;;;4.82;;
68792;SDS011;55778;54.346;10.210;2023-04-06T14:07:48;9.63;;;4.95;;
68792;SDS011;55778;54.346;10.210;2023-04-06T14:10:13;8.82;;;5.22;;
68792;SDS011;55778;54.346;10.210;2023-04-06T14:12:40;9.57;;;5.15;;
68792;SDS011;55778;54.346;10.210;2023-04-06T14:15:08;8.15;;;5.18;;
68792;SDS011;55778;54.346;10.210;2023-04-06T14:17:34;7.13;;;4.80;;
68792;SDS011;55778;54.346;10.210;2023-04-06T14:19:59;9.63;;;5.30;;
68792;SDS011;55778;54.346;10.210;2023-04-06T14:22:25;9.75;;;5.40;;
68792;SDS011;55778;54.346;10.210;2023-04-06T14:24:51;8.80;;;5.03;;
68792;SDS011;55778;54.346;10.210;2023-04-06T14:27:16;8.70;;;5.50;;
68792;SDS011;55778;54.346;10.210;2023-04-06T14:29:41;9.50;;;4.93;;